Time;durP1;ratioP1;P1;durP2;ratioP2;P2;SDS_P1;SDS_P2;PMS_P1;PMS_P2;Temp;Humidity;BMP_temperature;BMP_pressure;BME280_temperature;BME280_humidity;BME280_pressure;Samples;Min_cycle;Max_cycle;Signal;HPM_P1;HPM_P2
2024/03/23 00:01:02;;;;;;;4.17;1.33;;;10.90;99.90;;;;;;5035378;28;20493;-78
2024/03/23 00:03:31;;;;;;;1.17;1.17;;;10.90;99.90;;;;;;5035617;28;20423;-77
2024/03/23 00:06:04;;;;;;;1.73;1.40;;;10.90;99.90;;;;;;5035230;28;20450;-77
2024/03/23 00:08:33;;;;;;;1.40;1.30;;;10.80;99.90;;;;;;5035539;28;20509;-77
2024/03/23 00:11:03;;;;;;;1.10;1.00;;;10.90;99.90;;;;;;5035670;28;20513;-78
2024/03/23 00:13:33;;;;;;;3.43;1.80;;;10.90;99.90;;;;;;5035464;28;20485;-77
2024/03/23 00:16:04;;;;;;;1.67;1.47;;;10.80;99.90;;;;;;5035382;28;20496;-77
2024/03/23 00:18:33;;;;;;;1.20;1.10;;;10.80;99.90;;;;;;5035324;28;20474;-77
2024/03/23 00:21:03;;;;;;;1.93;1.50;;;10.80;99.90;;;;;;5034707;28;20485;-78
2024/03/23 00:23:33;;;;;;;2.23;1.10;;;10.80;99.90;;;;;;5035573;28;20435;-77
2024/03/23 00:26:03;;;;;;;1.57;1.47;;;10.80;99.90;;;;;;5034814;28;20498;-77
2024/03/23 00:28:32;;;;;;;1.57;1.47;;;10.80;99.90;;;;;;5034276;28;20473;-77
2024/03/23 00:31:03;;;;;;;1.37;1.27;;;10.70;99.90;;;;;;5034780;28;20461;-77
2024/03/23 00:33:32;;;;;;;1.30;1.20;;;10.70;99.90;;;;;;5034887;28;20458;-78
2024/03/23 00:36:02;;;;;;;1.23;1.13;;;10.70;99.90;;;;;;5034768;28;20427;-78
2024/03/23 00:38:32;;;;;;;3.73;1.03;;;10.70;99.90;;;;;;5034589;28;20502;-77
2024/03/23 00:41:02;;;;;;;1.60;1.50;;;10.70;99.90;;;;;;5034718;28;20581;-77
2024/03/23 00:43:32;;;;;;;2.50;1.37;;;10.70;99.90;;;;;;5034784;28;20423;-77
2024/03/23 00:46:02;;;;;;;2.97;1.43;;;10.70;99.90;;;;;;5034768;28;20481;-78
2024/03/23 00:48:31;;;;;;;1.53;1.17;;;10.60;99.90;;;;;;5034720;28;20831;-77
2024/03/23 00:51:02;;;;;;;2.23;1.37;;;10.60;99.90;;;;;;5034704;28;20500;-78
2024/03/23 00:53:31;;;;;;;2.10;1.53;;;10.60;99.90;;;;;;5034698;28;20431;-78
2024/03/23 00:55:57;;;;;;;1.20;1.10;;;10.60;99.90;;;;;;5034672;28;20490;-78
2024/03/23 00:58:23;;;;;;;1.57;1.13;;;10.60;99.90;;;;;;5034266;28;20514;-77
2024/03/23 01:00:50;;;;;;;1.50;1.23;;;10.50;99.90;;;;;;5034888;28;20949;-78
2024/03/23 01:03:15;;;;;;;1.80;1.70;;;10.50;99.90;;;;;;5034357;28;20661;-77
2024/03/23 01:05:42;;;;;;;1.70;1.50;;;10.40;99.90;;;;;;5033955;28;20534;-78
2024/03/23 01:08:08;;;;;;;2.40;1.43;;;10.40;99.90;;;;;;5034740;28;20231;-78
2024/03/23 01:10:36;;;;;;;1.03;1.03;;;10.30;99.90;;;;;;5033786;28;20446;-78
2024/03/23 01:13:02;;;;;;;1.30;1.20;;;10.30;99.90;;;;;;5034100;28;20203;-78
2024/03/23 01:15:28;;;;;;;2.10;1.37;;;10.20;99.90;;;;;;5034036;28;20447;-78
2024/03/23 01:17:54;;;;;;;3.13;1.40;;;10.30;99.90;;;;;;5034186;28;20286;-78
2024/03/23 01:20:21;;;;;;;1.53;0.90;;;10.30;99.90;;;;;;5034166;28;20439;-77
2024/03/23 01:22:47;;;;;;;2.07;1.10;;;10.20;99.90;;;;;;5034155;28;20206;-78
2024/03/23 01:25:13;;;;;;;1.47;1.13;;;10.20;99.90;;;;;;5034927;28;20525;-78
2024/03/23 01:27:40;;;;;;;1.03;0.83;;;10.20;99.90;;;;;;5034840;28;20663;-78
2024/03/23 01:30:08;;;;;;;2.30;1.20;;;10.20;99.90;;;;;;5034105;28;20540;-78
2024/03/23 01:32:34;;;;;;;1.00;1.00;;;10.20;99.90;;;;;;5046002;28;20453;-79
2024/03/23 01:35:01;;;;;;;2.23;1.33;;;10.20;99.90;;;;;;5047928;28;20474;-78
2024/03/23 01:37:26;;;;;;;1.17;1.07;;;10.20;99.90;;;;;;5048856;28;20234;-79
2024/03/23 01:39:53;;;;;;;1.00;1.00;;;10.20;99.90;;;;;;5049096;28;20473;-78
2024/03/23 01:42:19;;;;;;;1.10;1.00;;;10.20;99.90;;;;;;5042218;28;20207;-78
2024/03/23 01:44:47;;;;;;;1.83;1.03;;;10.10;99.90;;;;;;5034324;28;20443;-77
2024/03/23 01:47:13;;;;;;;1.43;1.33;;;10.10;99.90;;;;;;5034536;28;20223;-78
2024/03/23 01:49:39;;;;;;;2.97;1.10;;;10.10;99.90;;;;;;5035087;28;20846;-78
2024/03/23 01:52:07;;;;;;;2.50;1.40;;;10.20;99.90;;;;;;5035024;28;20587;-78
2024/03/23 01:54:32;;;;;;;3.40;1.20;;;10.20;99.90;;;;;;5034147;28;20446;-77
2024/03/23 01:57:00;;;;;;;1.07;0.97;;;10.20;99.90;;;;;;5034132;28;20445;-78
2024/03/23 01:59:26;;;;;;;0.97;0.87;;;10.20;99.90;;;;;;5033823;28;20235;-78
2024/03/23 02:01:54;;;;;;;4.10;1.17;;;10.30;99.90;;;;;;5034325;28;20447;-77
2024/03/23 02:04:19;;;;;;;2.50;1.80;;;10.30;99.90;;;;;;5034200;28;20207;-78
2024/03/23 02:06:46;;;;;;;1.57;1.00;;;10.30;99.90;;;;;;5033694;28;20450;-78
2024/03/23 02:09:13;;;;;;;4.10;1.30;;;10.30;99.90;;;;;;5033864;28;20223;-78
2024/03/23 02:11:40;;;;;;;2.93;1.70;;;10.40;99.90;;;;;;5033413;28;20893;-78
2024/03/23 02:14:07;;;;;;;1.50;1.40;;;10.40;99.90;;;;;;5033523;28;20447;-77
2024/03/23 02:16:34;;;;;;;1.53;0.80;;;10.40;99.90;;;;;;5034913;28;20849;-78
2024/03/23 02:19:01;;;;;;;1.30;1.00;;;10.50;99.90;;;;;;5035404;28;20490;-78
2024/03/23 02:21:31;;;;;;;1.03;0.97;;;10.40;99.90;;;;;;5035383;28;20936;-78
2024/03/23 02:23:59;;;;;;;3.00;1.40;;;10.40;99.90;;;;;;5038764;28;20438;-78
2024/03/23 02:26:25;;;;;;;1.00;0.90;;;10.40;99.90;;;;;;5039162;28;20450;-79
2024/03/23 02:28:51;;;;;;;2.30;1.23;;;10.40;99.90;;;;;;5038357;28;20505;-78
2024/03/23 02:31:18;;;;;;;0.83;0.83;;;10.40;99.90;;;;;;5039200;28;20908;-78
2024/03/23 02:33:43;;;;;;;1.20;1.10;;;10.50;99.90;;;;;;5038535;28;20696;-78
2024/03/23 02:36:10;;;;;;;2.17;1.17;;;10.40;99.90;;;;;;5038100;28;20438;-78
2024/03/23 02:38:36;;;;;;;1.40;1.30;;;10.40;99.90;;;;;;5038167;28;20231;-78
2024/03/23 02:41:05;;;;;;;1.77;1.00;;;10.40;99.90;;;;;;5038406;28;20434;-78
2024/03/23 02:43:31;;;;;;;1.17;0.90;;;10.40;99.90;;;;;;5037996;28;20196;-78
2024/03/23 02:45:58;;;;;;;1.40;1.30;;;10.40;99.90;;;;;;5038500;28;20434;-78
2024/03/23 02:48:24;;;;;;;2.60;1.10;;;10.40;99.90;;;;;;5038030;28;20459;-78
2024/03/23 02:50:51;;;;;;;1.67;0.93;;;10.50;99.90;;;;;;5038103;28;20786;-78
2024/03/23 02:53:17;;;;;;;1.40;0.87;;;10.40;99.90;;;;;;5037897;28;20200;-77
2024/03/23 02:55:44;;;;;;;2.40;1.47;;;10.30;99.90;;;;;;5038103;28;20518;-78
2024/03/23 02:58:11;;;;;;;1.00;1.00;;;10.30;99.90;;;;;;5037903;28;20489;-78
2024/03/23 03:00:38;;;;;;;2.00;1.00;;;10.30;99.90;;;;;;5038049;28;20526;-78
2024/03/23 03:03:04;;;;;;;1.70;0.90;;;10.30;99.90;;;;;;5037419;28;20939;-77
2024/03/23 03:05:31;;;;;;;1.77;1.13;;;10.30;99.90;;;;;;5037817;28;20835;-77
2024/03/23 03:07:56;;;;;;;1.37;1.23;;;10.20;99.90;;;;;;5037675;28;20470;-78
2024/03/23 03:10:23;;;;;;;3.17;0.97;;;10.20;99.90;;;;;;5038361;28;20447;-78
2024/03/23 03:12:49;;;;;;;0.90;0.90;;;10.20;99.90;;;;;;5037678;28;20215;-78
2024/03/23 03:15:17;;;;;;;2.50;1.00;;;10.20;99.90;;;;;;5037704;28;20442;-78
2024/03/23 03:17:43;;;;;;;2.23;1.17;;;10.20;99.90;;;;;;5037335;28;20590;-78
2024/03/23 03:20:13;;;;;;;0.90;0.90;;;10.20;99.90;;;;;;5038507;28;20439;-78
2024/03/23 03:22:39;;;;;;;1.33;1.13;;;10.20;99.90;;;;;;5042189;28;20195;-78
2024/03/23 03:25:07;;;;;;;1.80;1.10;;;10.20;99.90;;;;;;5043966;28;20467;-78
2024/03/23 03:27:34;;;;;;;1.93;1.00;;;10.10;99.90;;;;;;5042942;28;20200;-79
2024/03/23 03:30:02;;;;;;;1.13;0.80;;;10.10;99.90;;;;;;5044052;28;20486;-78
2024/03/23 03:32:29;;;;;;;1.00;0.90;;;10.10;99.90;;;;;;5045074;28;20447;-78
2024/03/23 03:34:56;;;;;;;1.90;1.20;;;10.10;99.90;;;;;;5036860;28;20823;-78
2024/03/23 03:37:22;;;;;;;1.03;0.63;;;10.10;99.90;;;;;;5037151;28;20454;-78
2024/03/23 03:39:49;;;;;;;1.20;1.10;;;10.10;99.90;;;;;;5036388;28;20481;-77
2024/03/23 03:42:15;;;;;;;2.30;1.20;;;10.10;99.90;;;;;;5036554;28;20207;-77
2024/03/23 03:44:41;;;;;;;0.90;0.90;;;10.10;99.90;;;;;;5036382;28;20443;-77
2024/03/23 03:47:07;;;;;;;1.50;1.40;;;10.00;99.90;;;;;;5036544;28;20207;-77
2024/03/23 03:49:35;;;;;;;2.10;1.27;;;10.00;99.90;;;;;;5036348;28;20828;-77
2024/03/23 03:52:01;;;;;;;1.23;1.13;;;10.00;99.90;;;;;;5035803;28;20204;-77
2024/03/23 03:54:28;;;;;;;2.03;1.50;;;10.00;99.90;;;;;;5035993;28;20447;-77
2024/03/23 03:56:54;;;;;;;1.77;1.30;;;10.00;99.90;;;;;;5035575;28;20450;-78
2024/03/23 03:59:21;;;;;;;1.80;0.93;;;10.00;99.90;;;;;;5035860;28;20486;-77
2024/03/23 04:01:47;;;;;;;1.77;1.60;;;10.00;99.90;;;;;;5035857;28;20203;-78
2024/03/23 04:04:16;;;;;;;3.77;1.57;;;10.00;99.90;;;;;;5037395;28;20971;-78
2024/03/23 04:06:43;;;;;;;1.30;1.20;;;10.00;99.90;;;;;;5035983;28;20784;-78
2024/03/23 04:09:10;;;;;;;1.90;1.80;;;10.00;99.90;;;;;;5035681;28;20976;-77
2024/03/23 04:11:36;;;;;;;1.10;0.90;;;10.00;99.90;;;;;;5035688;28;20447;-78
2024/03/23 04:14:02;;;;;;;3.60;1.10;;;10.00;99.90;;;;;;5036037;28;20446;-78
2024/03/23 04:16:29;;;;;;;1.10;1.00;;;10.00;99.90;;;;;;5035577;28;20583;-77
2024/03/23 04:18:56;;;;;;;1.10;1.00;;;10.00;99.90;;;;;;5035412;28;20483;-78
2024/03/23 04:21:22;;;;;;;1.03;0.93;;;10.00;99.90;;;;;;5035003;28;20450;-77
2024/03/23 04:23:50;;;;;;;1.50;1.00;;;10.00;99.90;;;;;;5035326;28;20485;-77
2024/03/23 04:26:16;;;;;;;1.30;1.20;;;10.00;99.90;;;;;;5035108;28;20451;-77
2024/03/23 04:28:43;;;;;;;1.90;0.90;;;10.00;99.90;;;;;;5034699;28;20481;-77
2024/03/23 04:31:09;;;;;;;1.00;0.90;;;10.00;99.90;;;;;;5035110;28;20485;-77
2024/03/23 04:33:36;;;;;;;1.53;1.00;;;10.00;99.90;;;;;;5035058;28;20450;-78
2024/03/23 04:36:02;;;;;;;2.60;1.27;;;10.00;99.90;;;;;;5034717;28;20689;-77
2024/03/23 04:38:29;;;;;;;2.60;1.10;;;10.00;99.90;;;;;;5034934;28;20561;-77
2024/03/23 04:40:58;;;;;;;2.47;1.40;;;10.00;99.90;;;;;;5034789;28;20461;-79
2024/03/23 04:43:24;;;;;;;1.13;1.03;;;10.00;99.90;;;;;;5035320;28;20795;-77
2024/03/23 04:45:50;;;;;;;2.10;1.30;;;10.00;99.90;;;;;;5034697;28;20445;-77
2024/03/23 04:48:16;;;;;;;1.37;1.20;;;10.10;99.90;;;;;;5034026;28;20223;-77
2024/03/23 04:50:43;;;;;;;2.07;1.27;;;10.20;99.90;;;;;;5034324;28;20446;-77
2024/03/23 04:53:09;;;;;;;1.10;1.00;;;10.20;99.90;;;;;;5033876;28;20218;-76
2024/03/23 04:55:35;;;;;;;2.57;1.20;;;10.20;99.90;;;;;;5033810;28;20439;-76
2024/03/23 04:58:03;;;;;;;1.50;1.40;;;10.10;99.90;;;;;;5033563;28;20232;-76
2024/03/23 05:00:29;;;;;;;1.37;1.27;;;9.90;99.90;;;;;;5033681;28;20451;-76
2024/03/23 05:02:55;;;;;;;2.50;1.67;;;9.70;99.90;;;;;;5033605;28;20446;-76
2024/03/23 05:05:22;;;;;;;1.40;1.30;;;9.70;99.90;;;;;;5033572;28;20466;-76
2024/03/23 05:07:48;;;;;;;1.90;1.37;;;9.60;99.90;;;;;;5033518;28;20227;-76
2024/03/23 05:10:14;;;;;;;8.27;1.60;;;9.50;99.90;;;;;;5033507;28;20966;-76
2024/03/23 05:12:40;;;;;;;1.00;0.90;;;9.50;99.90;;;;;;5033475;28;20218;-76
2024/03/23 05:15:08;;;;;;;1.70;1.60;;;9.50;99.90;;;;;;5033462;28;20439;-76
2024/03/23 05:17:34;;;;;;;1.97;1.50;;;9.40;99.90;;;;;;5033297;28;20203;-76
2024/03/23 05:20:01;;;;;;;1.70;1.03;;;9.40;99.90;;;;;;5033406;28;20457;-76
2024/03/23 05:22:27;;;;;;;1.50;1.40;;;9.50;99.90;;;;;;5033487;28;20210;-76
2024/03/23 05:24:53;;;;;;;4.13;2.20;;;9.50;99.90;;;;;;5033429;28;20442;-76
2024/03/23 05:27:19;;;;;;;8.90;3.20;;;9.50;99.90;;;;;;5033592;28;20204;-77
2024/03/23 05:29:47;;;;;;;2.43;2.23;;;9.50;99.90;;;;;;5033836;28;20495;-77
2024/03/23 05:32:14;;;;;;;4.30;3.10;;;9.60;99.90;;;;;;5034438;28;20215;-76
2024/03/23 05:34:41;;;;;;;4.50;2.70;;;9.50;99.90;;;;;;5034346;28;20447;-76
2024/03/23 05:37:06;;;;;;;2.93;1.60;;;9.50;99.90;;;;;;5034558;28;20443;-77
2024/03/23 05:39:33;;;;;;;4.47;2.13;;;9.50;99.90;;;;;;5034628;28;20504;-77
2024/03/23 05:41:59;;;;;;;4.73;2.13;;;9.40;99.90;;;;;;5033249;28;20680;-76
2024/03/23 05:44:26;;;;;;;2.03;1.87;;;9.30;99.90;;;;;;5033184;28;20437;-76
2024/03/23 05:46:51;;;;;;;3.20;1.90;;;9.20;99.90;;;;;;5033140;28;20199;-76
2024/03/23 05:49:21;;;;;;;2.87;1.57;;;9.20;99.90;;;;;;5033069;28;20997;-76
2024/03/23 05:51:46;;;;;;;13.10;2.53;;;9.20;99.90;;;;;;5033074;28;20210;-76
2024/03/23 05:54:13;;;;;;;3.47;1.77;;;9.20;99.90;;;;;;5032742;28;20447;-76
2024/03/23 05:56:39;;;;;;;4.53;2.40;;;9.10;99.90;;;;;;5033560;28;20207;-76
2024/03/23 05:59:06;;;;;;;5.13;2.33;;;9.10;99.90;;;;;;5036871;28;20482;-76
2024/03/23 06:01:32;;;;;;;3.27;2.23;;;9.20;99.90;;;;;;5036635;28;20211;-76
2024/03/23 06:04:01;;;;;;;2.40;1.40;;;9.20;99.90;;;;;;5036908;28;20446;-76
2024/03/23 06:06:30;;;;;;;1.27;1.17;;;9.10;99.90;;;;;;5036616;28;20689;-76
2024/03/23 06:08:56;;;;;;;3.20;1.77;;;8.90;99.90;;;;;;5036445;28;21006;-76
2024/03/23 06:11:22;;;;;;;3.50;1.90;;;8.80;99.90;;;;;;5036628;28;20457;-76
2024/03/23 06:13:49;;;;;;;1.80;0.80;;;8.80;99.90;;;;;;5036583;28;20435;-76
2024/03/23 06:16:14;;;;;;;1.13;0.93;;;8.80;99.90;;;;;;5036367;28;20204;-76
2024/03/23 06:18:41;;;;;;;2.17;0.70;;;8.70;99.90;;;;;;5036879;28;20482;-76
2024/03/23 06:21:13;;;;;;;1.57;0.80;;;8.60;99.90;;;;;;5036294;28;20210;-76
2024/03/23 06:23:41;;;;;;;1.67;0.63;;;8.50;99.90;;;;;;5036645;28;20445;-76
2024/03/23 06:26:07;;;;;;;0.80;0.40;;;8.40;99.90;;;;;;5036418;28;20446;-76
2024/03/23 06:28:34;;;;;;;1.93;0.57;;;8.50;99.90;;;;;;5036561;28;20513;-76
2024/03/23 06:31:00;;;;;;;0.40;0.30;;;8.50;99.90;;;;;;5036641;28;20438;-75
2024/03/23 06:33:27;;;;;;;1.50;0.43;;;8.50;99.90;;;;;;5036540;28;20450;-75
2024/03/23 06:35:52;;;;;;;0.40;0.40;;;8.50;99.90;;;;;;5036223;28;20199;-77
2024/03/23 06:38:19;;;;;;;0.70;0.63;;;8.40;99.90;;;;;;5036514;28;20987;-78
2024/03/23 06:40:48;;;;;;;0.40;0.40;;;8.30;99.90;;;;;;5036279;28;20589;-76
2024/03/23 06:43:15;;;;;;;0.40;0.40;;;8.30;99.90;;;;;;5036232;28;20486;-75
2024/03/23 06:45:41;;;;;;;0.50;0.40;;;8.30;99.90;;;;;;5036744;28;20446;-76
2024/03/23 06:48:08;;;;;;;0.40;0.30;;;8.30;99.90;;;;;;5036160;28;20818;-76
2024/03/23 06:50:34;;;;;;;0.43;0.33;;;8.30;99.90;;;;;;5027730;28;20687;-78
2024/03/23 06:53:02;;;;;;;0.40;0.30;;;8.30;99.90;;;;;;5041653;28;20535;-78
2024/03/23 06:55:27;;;;;;;0.80;0.30;;;8.30;99.90;;;;;;5041670;28;20203;-77
2024/03/23 06:57:55;;;;;;;0.50;0.50;;;8.30;99.90;;;;;;5043079;28;20517;-78
2024/03/23 07:00:21;;;;;;;0.47;0.47;;;8.20;99.90;;;;;;5040908;28;20210;-77
2024/03/23 07:02:48;;;;;;;0.30;0.30;;;8.20;99.90;;;;;;5039100;28;20443;-77
2024/03/23 07:05:14;;;;;;;0.40;0.30;;;8.30;99.90;;;;;;5035928;28;20215;-77
2024/03/23 07:07:41;;;;;;;0.50;0.40;;;8.30;99.90;;;;;;5035017;28;20447;-77
2024/03/23 07:10:07;;;;;;;0.40;0.40;;;8.40;99.90;;;;;;5035332;28;20235;-76
2024/03/23 07:12:34;;;;;;;0.57;0.40;;;8.60;99.90;;;;;;5035686;28;20450;-77
2024/03/23 07:15:01;;;;;;;0.40;0.30;;;8.70;99.90;;;;;;5035266;28;20443;-76
2024/03/23 07:17:27;;;;;;;0.30;0.30;;;9.00;99.90;;;;;;5035444;28;20450;-77
2024/03/23 07:19:53;;;;;;;1.03;0.40;;;9.10;99.90;;;;;;5035442;28;20483;-76
2024/03/23 07:22:20;;;;;;;0.40;0.30;;;9.10;99.90;;;;;;5035125;28;20447;-76
2024/03/23 07:24:46;;;;;;;0.40;0.30;;;9.10;99.90;;;;;;5035139;28;20211;-76
2024/03/23 07:27:12;;;;;;;0.30;0.30;;;9.20;99.90;;;;;;5034982;28;20453;-76
2024/03/23 07:29:38;;;;;;;0.30;0.30;;;9.40;99.90;;;;;;5035005;28;20247;-76
2024/03/23 07:32:07;;;;;;;0.37;0.30;;;9.60;99.90;;;;;;5037741;28;20447;-77
2024/03/23 07:34:32;;;;;;;0.57;0.30;;;9.70;99.90;;;;;;5036024;28;20195;-77
2024/03/23 07:36:59;;;;;;;0.40;0.30;;;9.60;99.90;;;;;;5035871;28;20447;-77
2024/03/23 07:39:27;;;;;;;0.40;0.30;;;9.50;99.90;;;;;;5035808;28;20224;-77
2024/03/23 07:41:54;;;;;;;0.30;0.30;;;9.40;99.90;;;;;;5035858;28;20482;-77
2024/03/23 07:44:20;;;;;;;0.30;0.30;;;9.20;99.90;;;;;;5035681;28;20814;-77
2024/03/23 07:46:46;;;;;;;0.30;0.30;;;9.20;99.90;;;;;;5035593;28;20438;-77
2024/03/23 07:49:13;;;;;;;0.40;0.40;;;9.10;99.90;;;;;;5035620;28;20231;-77
2024/03/23 07:51:41;;;;;;;0.40;0.30;;;9.10;99.90;;;;;;5035376;28;20446;-77
2024/03/23 07:54:06;;;;;;;0.43;0.30;;;9.20;99.90;;;;;;5035268;28;20462;-77
2024/03/23 07:56:33;;;;;;;0.40;0.30;;;9.20;99.90;;;;;;5034825;28;20819;-77
2024/03/23 07:59:00;;;;;;;0.30;0.30;;;9.30;99.90;;;;;;5034712;28;20629;-76
2024/03/23 08:01:26;;;;;;;0.40;0.30;;;9.20;99.90;;;;;;5034450;28;20446;-76
2024/03/23 08:03:53;;;;;;;0.40;0.30;;;9.10;99.90;;;;;;5034446;28;20438;-76
2024/03/23 08:06:22;;;;;;;0.50;0.50;;;9.20;99.90;;;;;;5035145;28;20435;-76
2024/03/23 08:08:50;;;;;;;0.30;0.30;;;9.20;99.90;;;;;;5034302;28;20828;-76
2024/03/23 08:11:17;;;;;;;0.40;0.40;;;9.10;99.90;;;;;;5034209;28;20974;-77
2024/03/23 08:13:45;;;;;;;0.30;0.30;;;9.00;99.90;;;;;;5034512;28;20825;-77
2024/03/23 08:16:13;;;;;;;0.30;0.30;;;8.90;99.90;;;;;;5034167;28;20856;-76
2024/03/23 08:18:40;;;;;;;0.40;0.30;;;9.00;99.90;;;;;;5034233;28;20509;-76
2024/03/23 08:21:07;;;;;;;0.30;0.30;;;8.90;99.90;;;;;;5034247;28;20459;-77
2024/03/23 08:23:36;;;;;;;0.30;0.30;;;8.90;99.90;;;;;;5036476;28;20454;-77
2024/03/23 08:26:04;;;;;;;0.30;0.30;;;9.00;99.90;;;;;;5034404;28;20459;-78
2024/03/23 08:28:30;;;;;;;0.70;0.50;;;9.20;99.90;;;;;;5034295;28;20542;-78
2024/03/23 08:30:57;;;;;;;0.80;0.40;;;9.50;99.90;;;;;;5034592;28;20501;-77
2024/03/23 08:33:24;;;;;;;0.40;0.40;;;9.60;99.90;;;;;;5034800;28;20447;-78
2024/03/23 08:35:55;;;;;;;0.47;0.40;;;9.60;99.90;;;;;;5034374;28;20959;-77
2024/03/23 08:38:21;;;;;;;0.40;0.40;;;9.80;99.90;;;;;;5034492;28;20471;-77
2024/03/23 08:40:57;;;;;;;0.70;0.60;;;9.90;99.90;;;;;;5034255;28;20496;-76
2024/03/23 08:43:22;;;;;;;0.30;0.30;;;9.90;99.90;;;;;;5034008;28;20431;-76
2024/03/23 08:45:49;;;;;;;0.43;0.43;;;10.00;99.90;;;;;;5033901;28;20445;-76
2024/03/23 08:48:15;;;;;;;0.83;0.50;;;10.00;99.90;;;;;;5033742;28;20247;-76
2024/03/23 08:50:42;;;;;;;0.83;0.70;;;9.90;99.90;;;;;;5033574;28;20960;-77
2024/03/23 08:53:08;;;;;;;0.93;0.50;;;10.00;99.90;;;;;;5034459;28;20215;-77
2024/03/23 08:55:35;;;;;;;1.53;0.40;;;10.10;99.90;;;;;;5034259;28;20866;-78
2024/03/23 08:58:03;;;;;;;1.30;0.70;;;10.00;99.90;;;;;;5033891;28;20477;-78
2024/03/23 09:00:31;;;;;;;0.97;0.50;;;9.70;99.90;;;;;;5034121;28;20494;-78
2024/03/23 09:02:57;;;;;;;0.80;0.70;;;9.60;99.90;;;;;;5033931;28;20901;-77
2024/03/23 09:05:24;;;;;;;0.80;0.80;;;9.50;99.90;;;;;;5033975;28;20471;-78
2024/03/23 09:07:50;;;;;;;1.60;0.70;;;9.30;99.90;;;;;;5033928;28;20215;-77
2024/03/23 09:10:16;;;;;;;0.93;0.80;;;9.00;99.90;;;;;;5033917;28;20963;-77
2024/03/23 09:12:42;;;;;;;0.97;0.70;;;9.00;99.90;;;;;;5033903;28;20207;-77
2024/03/23 09:15:10;;;;;;;1.03;0.93;;;10.00;99.90;;;;;;5033605;28;20443;-77
2024/03/23 09:17:36;;;;;;;2.07;1.00;;;11.40;99.90;;;;;;5033811;28;20211;-77
2024/03/23 09:20:04;;;;;;;0.70;0.63;;;13.10;99.90;;;;;;5033843;28;20834;-77
2024/03/23 09:22:30;;;;;;;1.10;0.87;;;14.50;99.90;;;;;;5033888;28;20235;-78
2024/03/23 09:24:56;;;;;;;1.23;0.93;;;15.60;99.90;;;;;;5033555;28;20482;-78
2024/03/23 09:27:22;;;;;;;3.83;1.43;;;16.30;99.90;;;;;;5033610;28;20579;-78
2024/03/23 09:29:49;;;;;;;1.07;0.80;;;16.70;99.90;;;;;;5033335;28;20494;-78
2024/03/23 09:32:16;;;;;;;4.13;1.33;;;16.60;99.90;;;;;;5033135;28;20204;-78
2024/03/23 09:34:43;;;;;;;4.80;1.57;;;16.40;99.90;;;;;;5034514;28;20472;-78
2024/03/23 09:37:08;;;;;;;1.23;1.10;;;15.80;99.90;;;;;;5034130;28;20461;-78
2024/03/23 09:39:35;;;;;;;1.07;0.97;;;15.00;99.90;;;;;;5034724;28;20482;-78
2024/03/23 09:42:01;;;;;;;1.13;0.80;;;14.40;99.90;;;;;;5034919;28;20200;-78
2024/03/23 09:44:29;;;;;;;0.70;0.70;;;13.80;99.90;;;;;;5040732;28;20446;-78
2024/03/23 09:46:55;;;;;;;1.20;1.10;;;13.30;99.90;;;;;;5042062;28;20214;-78
2024/03/23 09:49:23;;;;;;;2.70;1.20;;;12.80;99.90;;;;;;5042402;28;20466;-78
2024/03/23 09:51:49;;;;;;;1.53;0.80;;;12.70;99.90;;;;;;5042316;28;20451;-79
2024/03/23 09:54:16;;;;;;;0.70;0.70;;;12.70;99.90;;;;;;5042088;28;20435;-78
2024/03/23 09:56:42;;;;;;;1.10;1.00;;;12.60;99.90;;;;;;5035068;28;20231;-79
2024/03/23 09:59:09;;;;;;;1.80;0.87;;;12.60;99.90;;;;;;5033918;28;20483;-78
2024/03/23 10:01:35;;;;;;;1.03;0.93;;;12.90;99.90;;;;;;5033831;28;20450;-78
2024/03/23 10:04:02;;;;;;;1.10;0.90;;;13.70;99.90;;;;;;5033930;28;20438;-78
2024/03/23 10:06:29;;;;;;;2.60;0.70;;;14.60;99.90;;;;;;5035545;28;20184;-78
2024/03/23 10:08:56;;;;;;;0.90;0.90;;;15.70;99.90;;;;;;5034906;28;20490;-78
2024/03/23 10:11:22;;;;;;;5.03;1.00;;;16.90;99.90;;;;;;5034762;28;20457;-78
2024/03/23 10:13:49;;;;;;;5.20;0.90;;;18.10;99.90;;;;;;5034417;28;20453;-79
2024/03/23 10:16:22;;;;;;;1.03;1.03;;;18.80;99.90;;;;;;5034673;28;20541;-78
2024/03/23 10:18:50;;;;;;;1.07;0.97;;;19.00;99.90;;;;;;5033311;28;20906;-78
2024/03/23 10:21:16;;;;;;;3.60;1.50;;;18.50;99.90;;;;;;5033407;28;20443;-77
2024/03/23 10:23:45;;;;;;;1.10;0.90;;;17.70;99.90;;;;;;5032845;28;20442;-77
2024/03/23 10:26:16;;;;;;;2.43;1.17;;;16.40;99.90;;;;;;5033086;28;20447;-78
2024/03/23 10:29:00;;;;;;;1.40;1.30;;;15.40;99.70;;;;;;5037583;28;20837;-83
2024/03/23 10:31:26;;;;;;;1.73;0.90;;;14.50;99.90;;;;;;5038796;28;20437;-83
2024/03/23 10:33:54;;;;;;;0.87;0.70;;;14.10;99.90;;;;;;5039077;28;20450;-83
2024/03/23 10:36:20;;;;;;;0.90;0.77;;;13.70;99.90;;;;;;5039772;28;20579;-83
2024/03/23 10:38:50;;;;;;;0.93;0.70;;;13.50;99.90;;;;;;5039674;28;20489;-83
2024/03/23 10:41:16;;;;;;;1.00;0.90;;;13.10;99.90;;;;;;5038941;28;20450;-83
2024/03/23 10:43:45;;;;;;;2.87;1.00;;;12.80;99.90;;;;;;5040636;28;20951;-83
2024/03/23 10:46:11;;;;;;;8.80;0.97;;;12.40;99.90;;;;;;5042533;28;20458;-82
2024/03/23 10:48:38;;;;;;;5.07;0.90;;;11.80;99.90;;;;;;5040727;28;20466;-82
2024/03/23 10:51:07;;;;;;;0.97;0.60;;;11.10;99.90;;;;;;5038756;28;20212;-81
2024/03/23 10:53:36;;;;;;;0.40;0.40;;;10.40;99.90;;;;;;5038101;28;20438;-81
2024/03/23 10:56:05;;;;;;;1.90;0.40;;;9.90;99.90;;;;;;5038374;28;20442;-81
2024/03/23 10:58:35;;;;;;;0.90;0.60;;;9.20;99.90;;;;;;5037498;28;20459;-81
2024/03/23 11:01:03;;;;;;;1.10;0.77;;;8.50;99.90;;;;;;5037105;28;20848;-82
2024/03/23 11:03:37;;;;;;;1.67;0.50;;;8.20;99.90;;;;;;5038104;28;20454;-82
2024/03/23 11:06:03;;;;;;;0.93;0.60;;;8.10;99.90;;;;;;5038507;28;20443;-82
2024/03/23 11:08:35;;;;;;;0.63;0.50;;;8.10;99.90;;;;;;5038412;28;20528;-82
2024/03/23 11:11:22;;;;;;;1.60;0.57;;;8.10;99.90;;;;;;5037482;28;20450;-82
2024/03/23 11:13:50;;;;;;;3.87;0.70;;;8.40;99.90;;;;;;5037806;28;20514;-82
2024/03/23 11:16:17;;;;;;;1.00;0.57;;;8.70;99.90;;;;;;5037607;28;20447;-82
2024/03/23 11:18:44;;;;;;;2.93;0.50;;;9.00;99.90;;;;;;5038796;28;20513;-82
2024/03/23 11:21:11;;;;;;;0.40;0.37;;;9.10;99.90;;;;;;5060496;28;20517;-82
2024/03/23 11:23:37;;;;;;;3.37;0.87;;;9.10;99.90;;;;;;5059869;28;20455;-83
2024/03/23 11:26:07;;;;;;;1.73;0.70;;;9.20;99.90;;;;;;5059594;28;20463;-86
2024/03/23 11:28:35;;;;;;;3.30;0.80;;;9.40;99.90;;;;;;5059799;28;20443;-83
2024/03/23 11:31:01;;;;;;;0.40;0.40;;;9.60;99.90;;;;;;5059889;28;20462;-82
2024/03/23 11:33:29;;;;;;;1.70;0.50;;;9.80;99.90;;;;;;5060077;28;20893;-83
2024/03/23 11:35:54;;;;;;;0.70;0.53;;;10.00;99.90;;;;;;5060596;28;20184;-85
2024/03/23 11:38:21;;;;;;;0.40;0.40;;;10.20;99.90;;;;;;5059632;28;20451;-82
2024/03/23 11:40:49;;;;;;;0.60;0.60;;;10.40;99.90;;;;;;5041902;28;20216;-82
2024/03/23 11:43:16;;;;;;;1.73;0.60;;;10.50;99.90;;;;;;5038976;28;20438;-82
2024/03/23 11:45:45;;;;;;;0.60;0.57;;;10.50;99.90;;;;;;5039648;28;20439;-82
2024/03/23 11:48:13;;;;;;;0.60;0.60;;;10.60;99.90;;;;;;5039742;28;20477;-81
2024/03/23 11:50:40;;;;;;;1.07;0.70;;;10.60;99.90;;;;;;5039113;28;20449;-81
2024/03/23 11:53:17;;;;;;;0.60;0.40;;;10.50;99.90;;;;;;5039999;28;20504;-81
2024/03/23 11:55:45;;;;;;;0.70;0.40;;;10.40;99.90;;;;;;5039430;28;20924;-81
2024/03/23 11:58:13;;;;;;;4.17;0.60;;;10.40;99.90;;;;;;5040407;28;20470;-81
2024/03/23 12:00:39;;;;;;;0.50;0.40;;;10.20;99.90;;;;;;5039346;28;21034;-81
2024/03/23 12:03:07;;;;;;;0.53;0.53;;;10.40;99.90;;;;;;5039062;28;20485;-81
2024/03/23 12:05:34;;;;;;;1.33;0.70;;;10.60;99.90;;;;;;5039095;28;20453;-81
2024/03/23 12:08:21;;;;;;;2.60;0.60;;;10.90;99.90;;;;;;5039398;28;20521;-81
2024/03/23 12:10:50;;;;;;;4.53;0.80;;;11.10;99.90;;;;;;5032226;28;20509;-82
2024/03/23 12:13:17;;;;;;;1.03;0.57;;;11.30;99.90;;;;;;5039810;28;20512;-82
2024/03/23 12:15:45;;;;;;;1.13;0.83;;;10.80;99.90;;;;;;5040710;28;20849;-82
2024/03/23 12:18:13;;;;;;;1.13;0.50;;;10.60;99.90;;;;;;5041213;28;20455;-81
2024/03/23 12:20:40;;;;;;;1.77;0.70;;;10.50;99.90;;;;;;5040499;28;20532;-81
2024/03/23 12:23:08;;;;;;;0.63;0.50;;;10.40;99.90;;;;;;5039261;28;20457;-82
2024/03/23 12:25:36;;;;;;;0.80;0.50;;;10.40;99.90;;;;;;5040189;28;20431;-82
2024/03/23 12:28:02;;;;;;;7.80;1.10;;;10.50;99.90;;;;;;5040075;28;20994;-81
2024/03/23 12:30:29;;;;;;;2.40;0.70;;;10.40;99.90;;;;;;5039166;28;20474;-82
2024/03/23 12:32:55;;;;;;;1.10;0.80;;;10.20;99.90;;;;;;5039300;28;20430;-81
2024/03/23 12:35:23;;;;;;;0.90;0.60;;;10.10;99.90;;;;;;5038996;28;20811;-81
2024/03/23 12:37:49;;;;;;;1.20;1.10;;;10.10;99.90;;;;;;5038959;28;20595;-81
2024/03/23 12:40:15;;;;;;;5.57;0.90;;;10.40;99.90;;;;;;5039434;28;20478;-82
2024/03/23 12:42:41;;;;;;;2.13;0.90;;;10.80;99.90;;;;;;5038690;28;20575;-81
2024/03/23 12:45:09;;;;;;;2.03;0.60;;;10.90;99.90;;;;;;5039408;28;20542;-81
2024/03/23 12:47:35;;;;;;;4.60;1.00;;;10.90;99.90;;;;;;5038177;28;20271;-81
2024/03/23 12:50:02;;;;;;;7.53;1.43;;;10.80;99.90;;;;;;5037914;28;20530;-81